^^
WestSenecaWeather Station Historical Data
 
Daily Summary for October 21, 2018 Units:  English    Metric   Both
Daily Weekly Monthly Yearly Custom
  Current: High: Low: Average:
Temperature: 39 °F 41.5 °F 39 °F 40.2 °F
Dew Point: 31.7 °F 36.7 °F 29.7 °F 32.1 °F
Humidity: 75% 83% 67% 73%
Wind Speed: 13.8mph 16mph 3.5mph 9mph
Wind Gust: 7.8mph 11.4mph - -
WindNorth - - North
Pressure: 29.95 in 29.95 in 29.80 in -
Precipitation: 0 in      
Historical Graphs
 
 
Tabular Data for October 21, 2018
Time Temperature Dew Point Pressure Wind Wind Speed Wind Gust Humidity Rainfall Rate (Hourly) solar
00:04 41.5 °F 36.7 °F 29.80 in North 4.6 mph 3.1 mph 83% 0 in WeatherDisplay:10.37 W/m2
00:09 41.4 °F 36.6 °F 29.81 in North 8 mph 6.9 mph 83% 0 in WeatherDisplay:10.37 W/m2
00:14 41.4 °F 36.3 °F 29.81 in North 5.8 mph 3.7 mph 82% 0 in WeatherDisplay:10.37 W/m2
00:19 41.4 °F 36 °F 29.81 in North 11.5 mph 7 mph 81% 0 in WeatherDisplay:10.37 W/m2
00:24 41.3 °F 35.9 °F 29.82 in North 11.5 mph 8.8 mph 81% 0 in WeatherDisplay:10.37 W/m2
00:29 41.3 °F 35.6 °F 29.82 in North 10.4 mph 5.3 mph 80% 0 in WeatherDisplay:10.37 W/m2
00:34 41.2 °F 35.2 °F 29.82 in North 12.7 mph 4.2 mph 79% 0 in WeatherDisplay:10.37 W/m2
00:39 41.1 °F 35.4 °F 29.83 in North 9 mph 6.1 mph 80% 0 in WeatherDisplay:10.37 W/m2
00:44 41.1 °F 35.1 °F 29.83 in North 12.7 mph 2.7 mph 79% 0 in WeatherDisplay:10.37 W/m2
00:49 41 °F 35 °F 29.84 in North 10.4 mph 3.9 mph 79% 0 in WeatherDisplay:10.37 W/m2
00:54 40.9 °F 35.2 °F 29.84 in North 6 mph 3.4 mph 80% 0 in WeatherDisplay:10.37 W/m2
00:59 40.9 °F 35.2 °F 29.84 in North 3.5 mph 2.8 mph 80% 0 in WeatherDisplay:10.37 W/m2
01:04 40.9 °F 34.9 °F 29.84 in North 10.4 mph 5.5 mph 79% 0 in WeatherDisplay:10.37 W/m2
01:09 40.8 °F 34.8 °F 29.85 in North 4 mph 3.1 mph 79% 0 in WeatherDisplay:10.37 W/m2
01:14 40.9 °F 34.6 °F 29.85 in North 8.1 mph 3.7 mph 78% 0 in WeatherDisplay:10.37 W/m2
01:19 40.9 °F 33.6 °F 29.85 in North 9.2 mph 4.8 mph 75% 0 in WeatherDisplay:10.37 W/m2
01:24 40.8 °F 32.5 °F 29.86 in North 6.9 mph 6.9 mph 72% 0 in WeatherDisplay:10.37 W/m2
01:29 40.7 °F 31.7 °F 29.86 in North 11 mph 7.1 mph 70% 0 in WeatherDisplay:10.37 W/m2
01:34 40.7 °F 31 °F 29.87 in North 16 mph 7.7 mph 68% 0 in WeatherDisplay:10.37 W/m2
01:39 40.5 °F 31.1 °F 29.87 in North 11.5 mph 6.2 mph 69% 0 in WeatherDisplay:10.37 W/m2
01:44 40.3 °F 30.9 °F 29.87 in North 6.9 mph 2.4 mph 69% 0 in WeatherDisplay:10.37 W/m2
01:49 40.1 °F 30.7 °F 29.88 in North 6.9 mph 4.8 mph 69% 0 in WeatherDisplay:10.37 W/m2
01:54 40 °F 30.6 °F 29.88 in North 8.1 mph 5.5 mph 69% 0 in WeatherDisplay:10.37 W/m2
01:59 40 °F 31 °F 29.89 in North 5.8 mph 4.4 mph 70% 0 in WeatherDisplay:10.37 W/m2
02:04 40 °F 30.6 °F 29.89 in North 12.7 mph 3.7 mph 69% 0 in WeatherDisplay:10.37 W/m2
02:09 40 °F 30.6 °F 29.89 in North 9.2 mph 6.4 mph 69% 0 in WeatherDisplay:10.37 W/m2
02:14 40 °F 30.3 °F 29.90 in North 9.2 mph 2.5 mph 68% 0 in WeatherDisplay:10.37 W/m2
02:19 40 °F 29.9 °F 29.90 in North 8.1 mph 4.3 mph 67% 0 in WeatherDisplay:10.37 W/m2
02:24 39.9 °F 29.8 °F 29.91 in North 11.5 mph 4.7 mph 67% 0 in WeatherDisplay:10.37 W/m2
02:29 39.8 °F 29.7 °F 29.91 in North 11.5 mph 3.9 mph 67% 0 in WeatherDisplay:10.37 W/m2
02:34 39.8 °F 30.1 °F 29.91 in North 8 mph 3.8 mph 68% 0 in WeatherDisplay:10.37 W/m2
02:39 39.7 °F 30 °F 29.91 in North 11.5 mph 6.3 mph 68% 0 in WeatherDisplay:10.37 W/m2
02:44 39.6 °F 30.3 °F 29.92 in North 9 mph 6.3 mph 69% 0 in WeatherDisplay:10.37 W/m2
02:49 39.6 °F 29.9 °F 29.92 in North 4.6 mph 4.3 mph 68% 0 in WeatherDisplay:10.37 W/m2
02:54 39.6 °F 30.3 °F 29.92 in North 4 mph 3.3 mph 69% 0 in WeatherDisplay:10.37 W/m2
02:59 39.5 °F 29.8 °F 29.93 in North 9.2 mph 5.2 mph 68% 0 in WeatherDisplay:10.37 W/m2
03:04 39.5 °F 29.8 °F 29.93 in North 8.1 mph 5.9 mph 68% 0 in WeatherDisplay:10.37 W/m2
03:09 39.4 °F 30.1 °F 29.93 in North 8.1 mph 4.7 mph 69% 0 in WeatherDisplay:10.37 W/m2
03:14 39.3 °F 30 °F 29.93 in North 4.6 mph 4.3 mph 69% 0 in WeatherDisplay:10.37 W/m2
03:19 39.3 °F 30 °F 29.94 in North 11.5 mph 3.6 mph 69% 0 in WeatherDisplay:10.37 W/m2
03:24 39.2 °F 29.9 °F 29.94 in North 10 mph 3.8 mph 69% 0 in WeatherDisplay:10.37 W/m2
03:29 39.2 °F 29.9 °F 29.94 in North 8.1 mph 2.8 mph 69% 0 in WeatherDisplay:10.37 W/m2
03:34 39.2 °F 30.2 °F 29.94 in North 6.9 mph 3.2 mph 70% 0 in WeatherDisplay:10.37 W/m2
03:39 39.2 °F 30.2 °F 29.94 in North 6 mph 3.5 mph 70% 0 in WeatherDisplay:10.37 W/m2
03:44 39.2 °F 30.6 °F 29.95 in North 9 mph 4.3 mph 71% 0 in WeatherDisplay:10.37 W/m2
03:49 39.2 °F 31.3 °F 29.95 in North 14 mph 11.4 mph 73% 0 in WeatherDisplay:10.37 W/m2
03:54 39 °F 31.7 °F 29.95 in North 13.8 mph 9.7 mph 75% 0 in WeatherDisplay:10.37 W/m2
03:55 39 °F 31.7 °F 29.95 in North 13.8 mph 7.8 mph 75% 0 in WeatherDisplay:10.37 W/m2
west seneca weather
Compliments of Weather Underground - 2 mb